sensor_id;sensor_type;location;lat;lon;timestamp;P1;durP1;ratioP1;P2;durP2;ratioP2
44246;SDS011;29922;0.000;0.000;2022-08-19T10:11:15;16.80;;;9.73;;
44246;SDS011;29922;0.000;0.000;2022-08-19T10:16:36;9.27;;;6.32;;
44246;SDS011;29922;0.000;0.000;2022-08-19T10:21:58;12.40;;;7.50;;
44246;SDS011;29922;0.000;0.000;2022-08-19T10:27:20;9.95;;;6.30;;
44246;SDS011;29922;0.000;0.000;2022-08-19T10:32:40;8.48;;;5.25;;
44246;SDS011;29922;0.000;0.000;2022-08-19T10:43:22;8.63;;;3.78;;
44246;SDS011;29922;0.000;0.000;2022-08-19T10:48:44;6.93;;;3.88;;
44246;SDS011;29922;0.000;0.000;2022-08-19T10:54:06;6.72;;;4.07;;
44246;SDS011;29922;0.000;0.000;2022-08-19T10:59:28;6.95;;;4.32;;
44246;SDS011;29922;0.000;0.000;2022-08-19T11:04:49;8.15;;;4.63;;
44246;SDS011;29922;0.000;0.000;2022-08-19T11:10:11;8.05;;;4.88;;
44246;SDS011;29922;0.000;0.000;2022-08-19T11:15:35;8.35;;;5.38;;
44246;SDS011;29922;0.000;0.000;2022-08-19T11:21:04;8.05;;;5.70;;
44246;SDS011;29922;0.000;0.000;2022-08-19T11:26:28;7.95;;;5.10;;
44246;SDS011;29922;0.000;0.000;2022-08-19T11:31:52;9.63;;;5.88;;
44246;SDS011;29922;0.000;0.000;2022-08-19T11:37:13;8.93;;;5.70;;
44246;SDS011;29922;0.000;0.000;2022-08-19T11:42:34;7.82;;;5.60;;
44246;SDS011;29922;0.000;0.000;2022-08-19T11:48:13;9.35;;;6.18;;
44246;SDS011;29922;0.000;0.000;2022-08-19T11:53:34;9.45;;;6.22;;
44246;SDS011;29922;0.000;0.000;2022-08-19T11:58:56;9.90;;;6.07;;
44246;SDS011;29922;0.000;0.000;2022-08-19T12:04:18;8.27;;;5.70;;
44246;SDS011;29922;0.000;0.000;2022-08-19T12:09:39;8.35;;;6.25;;
44246;SDS011;29922;0.000;0.000;2022-08-19T12:15:00;9.18;;;6.05;;
44246;SDS011;29922;0.000;0.000;2022-08-19T12:20:22;9.20;;;6.32;;
44246;SDS011;29922;0.000;0.000;2022-08-19T12:25:46;8.85;;;6.15;;
44246;SDS011;29922;0.000;0.000;2022-08-19T12:31:10;8.73;;;6.05;;
44246;SDS011;29922;0.000;0.000;2022-08-19T12:36:32;8.75;;;6.20;;
44246;SDS011;29922;0.000;0.000;2022-08-19T12:41:53;9.55;;;6.05;;
44246;SDS011;29922;0.000;0.000;2022-08-19T12:47:14;9.63;;;6.40;;
44246;SDS011;29922;0.000;0.000;2022-08-19T12:52:36;10.02;;;6.07;;
44246;SDS011;29922;0.000;0.000;2022-08-19T12:58:00;9.05;;;6.10;;
44246;SDS011;29922;0.000;0.000;2022-08-19T13:03:21;9.00;;;6.05;;
44246;SDS011;29922;0.000;0.000;2022-08-19T13:08:49;7.07;;;5.25;;
44246;SDS011;29922;0.000;0.000;2022-08-19T13:14:09;6.75;;;4.78;;
44246;SDS011;29922;0.000;0.000;2022-08-19T13:19:30;7.25;;;5.10;;
44246;SDS011;29922;0.000;0.000;2022-08-19T13:24:52;7.70;;;5.07;;
44246;SDS011;29922;0.000;0.000;2022-08-19T13:30:14;9.00;;;5.68;;
44246;SDS011;29922;0.000;0.000;2022-08-19T13:35:56;8.68;;;5.53;;
44246;SDS011;29922;0.000;0.000;2022-08-19T13:41:20;7.85;;;5.03;;
44246;SDS011;29922;0.000;0.000;2022-08-19T13:46:41;8.88;;;5.53;;
44246;SDS011;29922;0.000;0.000;2022-08-19T13:52:03;8.55;;;5.85;;
44246;SDS011;29922;0.000;0.000;2022-08-19T13:57:27;8.80;;;5.50;;
44246;SDS011;29922;0.000;0.000;2022-08-19T14:02:49;8.10;;;5.57;;
44246;SDS011;29922;0.000;0.000;2022-08-19T14:08:12;10.30;;;5.20;;
44246;SDS011;29922;0.000;0.000;2022-08-19T14:13:34;8.20;;;5.18;;
44246;SDS011;29922;0.000;0.000;2022-08-19T14:18:56;6.22;;;4.85;;
44246;SDS011;29922;0.000;0.000;2022-08-19T14:24:16;7.32;;;4.75;;
44246;SDS011;29922;0.000;0.000;2022-08-19T14:29:38;6.75;;;4.50;;
44246;SDS011;29922;0.000;0.000;2022-08-19T14:34:58;6.80;;;4.50;;
44246;SDS011;29922;0.000;0.000;2022-08-19T14:40:19;5.95;;;4.32;;
44246;SDS011;29922;0.000;0.000;2022-08-19T14:45:45;5.32;;;3.97;;
44246;SDS011;29922;0.000;0.000;2022-08-19T14:51:06;5.95;;;4.22;;
44246;SDS011;29922;0.000;0.000;2022-08-19T14:56:28;6.45;;;4.18;;
44246;SDS011;29922;0.000;0.000;2022-08-19T15:01:51;6.47;;;4.40;;
44246;SDS011;29922;0.000;0.000;2022-08-19T15:07:11;6.82;;;4.10;;
44246;SDS011;29922;0.000;0.000;2022-08-19T15:12:32;5.13;;;3.60;;
44246;SDS011;29922;0.000;0.000;2022-08-19T15:17:55;6.20;;;3.78;;
44246;SDS011;29922;0.000;0.000;2022-08-19T15:23:21;6.75;;;3.90;;
44246;SDS011;29922;0.000;0.000;2022-08-19T15:28:41;5.15;;;3.70;;
44246;SDS011;29922;0.000;0.000;2022-08-19T15:34:04;4.90;;;3.85;;
44246;SDS011;29922;0.000;0.000;2022-08-19T15:39:25;5.78;;;3.78;;
44246;SDS011;29922;0.000;0.000;2022-08-19T15:44:45;7.22;;;4.30;;
44246;SDS011;29922;0.000;0.000;2022-08-19T15:50:09;6.60;;;3.67;;
44246;SDS011;29922;0.000;0.000;2022-08-19T15:55:33;5.85;;;3.92;;
44246;SDS011;29922;0.000;0.000;2022-08-19T16:00:56;4.90;;;3.50;;
44246;SDS011;29922;0.000;0.000;2022-08-19T16:06:38;5.35;;;3.78;;
44246;SDS011;29922;0.000;0.000;2022-08-19T16:12:01;4.43;;;3.35;;
44246;SDS011;29922;0.000;0.000;2022-08-19T16:17:24;5.10;;;3.80;;
44246;SDS011;29922;0.000;0.000;2022-08-19T16:22:46;4.68;;;3.67;;
44246;SDS011;29922;0.000;0.000;2022-08-19T16:28:07;4.93;;;3.75;;
44246;SDS011;29922;0.000;0.000;2022-08-19T16:33:28;5.60;;;4.00;;
44246;SDS011;29922;0.000;0.000;2022-08-19T16:38:50;7.50;;;4.18;;
44246;SDS011;29922;0.000;0.000;2022-08-19T16:44:12;5.15;;;3.50;;
44246;SDS011;29922;0.000;0.000;2022-08-19T16:49:35;5.97;;;3.70;;
44246;SDS011;29922;0.000;0.000;2022-08-19T16:54:57;4.80;;;3.60;;
44246;SDS011;29922;0.000;0.000;2022-08-19T17:00:17;6.03;;;3.50;;
44246;SDS011;29922;0.000;0.000;2022-08-19T17:05:40;5.65;;;3.47;;
44246;SDS011;29922;0.000;0.000;2022-08-19T17:11:03;4.43;;;3.00;;
44246;SDS011;29922;0.000;0.000;2022-08-19T17:16:24;3.97;;;2.88;;
44246;SDS011;29922;0.000;0.000;2022-08-19T17:21:47;4.80;;;2.88;;
44246;SDS011;29922;0.000;0.000;2022-08-19T17:27:09;4.15;;;3.25;;
44246;SDS011;29922;0.000;0.000;2022-08-19T17:32:30;3.55;;;2.85;;
44246;SDS011;29922;0.000;0.000;2022-08-19T17:37:53;4.97;;;3.15;;
44246;SDS011;29922;0.000;0.000;2022-08-19T17:43:15;4.55;;;2.90;;
44246;SDS011;29922;0.000;0.000;2022-08-19T17:48:37;5.57;;;3.60;;
44246;SDS011;29922;0.000;0.000;2022-08-19T17:53:58;3.83;;;3.05;;
44246;SDS011;29922;0.000;0.000;2022-08-19T17:59:21;4.05;;;3.20;;
44246;SDS011;29922;0.000;0.000;2022-08-19T18:04:41;4.90;;;2.67;;
44246;SDS011;29922;0.000;0.000;2022-08-19T18:10:02;3.97;;;3.22;;
44246;SDS011;29922;0.000;0.000;2022-08-19T18:15:24;4.03;;;2.92;;
44246;SDS011;29922;0.000;0.000;2022-08-19T18:20:45;3.42;;;2.72;;
44246;SDS011;29922;0.000;0.000;2022-08-19T18:26:05;5.93;;;3.03;;
44246;SDS011;29922;0.000;0.000;2022-08-19T18:31:28;5.07;;;2.90;;
44246;SDS011;29922;0.000;0.000;2022-08-19T18:36:48;4.72;;;3.10;;
44246;SDS011;29922;0.000;0.000;2022-08-19T18:42:12;5.43;;;3.00;;
44246;SDS011;29922;0.000;0.000;2022-08-19T18:47:52;3.72;;;3.00;;
44246;SDS011;29922;0.000;0.000;2022-08-19T18:53:32;3.60;;;2.60;;
44246;SDS011;29922;0.000;0.000;2022-08-19T18:58:56;3.75;;;2.92;;
44246;SDS011;29922;0.000;0.000;2022-08-19T19:04:19;5.13;;;3.00;;
44246;SDS011;29922;0.000;0.000;2022-08-19T19:09:42;3.53;;;2.78;;
44246;SDS011;29922;0.000;0.000;2022-08-19T19:15:04;3.58;;;2.78;;
44246;SDS011;29922;0.000;0.000;2022-08-19T19:20:27;3.72;;;2.70;;
44246;SDS011;29922;0.000;0.000;2022-08-19T19:25:48;4.05;;;3.00;;
44246;SDS011;29922;0.000;0.000;2022-08-19T19:31:11;3.95;;;2.92;;
44246;SDS011;29922;0.000;0.000;2022-08-19T19:36:35;3.67;;;2.83;;
44246;SDS011;29922;0.000;0.000;2022-08-19T19:41:55;4.05;;;3.00;;
44246;SDS011;29922;0.000;0.000;2022-08-19T19:47:16;3.83;;;2.38;;
44246;SDS011;29922;0.000;0.000;2022-08-19T19:52:39;4.93;;;3.10;;
44246;SDS011;29922;0.000;0.000;2022-08-19T19:58:03;3.08;;;2.60;;
44246;SDS011;29922;0.000;0.000;2022-08-19T20:03:24;3.45;;;2.85;;
44246;SDS011;29922;0.000;0.000;2022-08-19T20:08:47;4.43;;;2.88;;
44246;SDS011;29922;0.000;0.000;2022-08-19T20:14:26;3.55;;;2.78;;
44246;SDS011;29922;0.000;0.000;2022-08-19T20:19:49;4.15;;;2.80;;
44246;SDS011;29922;0.000;0.000;2022-08-19T20:25:12;5.55;;;2.88;;
44246;SDS011;29922;0.000;0.000;2022-08-19T20:30:34;3.00;;;2.50;;
44246;SDS011;29922;0.000;0.000;2022-08-19T20:35:54;4.45;;;2.83;;
44246;SDS011;29922;0.000;0.000;2022-08-19T20:41:16;3.50;;;2.53;;
44246;SDS011;29922;0.000;0.000;2022-08-19T20:46:37;3.35;;;2.40;;
44246;SDS011;29922;0.000;0.000;2022-08-19T20:51:58;3.67;;;2.58;;
44246;SDS011;29922;0.000;0.000;2022-08-19T20:57:19;3.47;;;2.50;;
44246;SDS011;29922;0.000;0.000;2022-08-19T21:02:40;3.15;;;2.45;;
44246;SDS011;29922;0.000;0.000;2022-08-19T21:08:01;3.88;;;2.80;;
44246;SDS011;29922;0.000;0.000;2022-08-19T21:13:23;4.00;;;2.53;;
44246;SDS011;29922;0.000;0.000;2022-08-19T21:18:44;3.60;;;2.58;;
44246;SDS011;29922;0.000;0.000;2022-08-19T21:24:05;3.58;;;2.67;;
44246;SDS011;29922;0.000;0.000;2022-08-19T21:29:27;2.78;;;2.40;;
44246;SDS011;29922;0.000;0.000;2022-08-19T21:34:49;3.75;;;2.70;;
44246;SDS011;29922;0.000;0.000;2022-08-19T21:40:11;3.40;;;2.67;;
44246;SDS011;29922;0.000;0.000;2022-08-19T21:45:33;2.83;;;2.22;;
44246;SDS011;29922;0.000;0.000;2022-08-19T21:50:54;3.05;;;2.40;;
44246;SDS011;29922;0.000;0.000;2022-08-19T21:56:14;3.97;;;2.72;;
44246;SDS011;29922;0.000;0.000;2022-08-19T22:01:36;3.58;;;2.67;;
44246;SDS011;29922;0.000;0.000;2022-08-19T22:06:57;3.97;;;2.58;;
44246;SDS011;29922;0.000;0.000;2022-08-19T22:12:19;3.30;;;2.47;;
44246;SDS011;29922;0.000;0.000;2022-08-19T22:17:43;3.10;;;2.42;;
44246;SDS011;29922;0.000;0.000;2022-08-19T22:23:04;3.63;;;2.03;;
44246;SDS011;29922;0.000;0.000;2022-08-19T22:28:26;2.78;;;2.10;;
44246;SDS011;29922;0.000;0.000;2022-08-19T22:33:48;3.55;;;2.22;;
44246;SDS011;29922;0.000;0.000;2022-08-19T22:39:09;2.97;;;2.25;;
44246;SDS011;29922;0.000;0.000;2022-08-19T22:44:30;2.78;;;2.17;;
44246;SDS011;29922;0.000;0.000;2022-08-19T22:49:52;3.13;;;2.17;;
44246;SDS011;29922;0.000;0.000;2022-08-19T22:55:13;3.17;;;2.25;;
44246;SDS011;29922;0.000;0.000;2022-08-19T23:00:33;3.22;;;2.28;;
44246;SDS011;29922;0.000;0.000;2022-08-19T23:05:55;2.90;;;2.40;;
44246;SDS011;29922;0.000;0.000;2022-08-19T23:11:16;2.95;;;2.20;;
44246;SDS011;29922;0.000;0.000;2022-08-19T23:16:37;2.65;;;1.98;;
44246;SDS011;29922;0.000;0.000;2022-08-19T23:21:59;2.90;;;2.17;;
44246;SDS011;29922;0.000;0.000;2022-08-19T23:27:20;3.90;;;2.53;;
44246;SDS011;29922;0.000;0.000;2022-08-19T23:33:00;2.92;;;2.00;;
44246;SDS011;29922;0.000;0.000;2022-08-19T23:38:26;2.97;;;2.03;;
44246;SDS011;29922;0.000;0.000;2022-08-19T23:43:50;2.65;;;2.17;;
44246;SDS011;29922;0.000;0.000;2022-08-19T23:49:10;3.08;;;2.22;;
44246;SDS011;29922;0.000;0.000;2022-08-19T23:54:33;2.83;;;2.17;;
44246;SDS011;29922;0.000;0.000;2022-08-19T23:59:54;3.67;;;2.30;;
